Time;durP1;ratioP1;P1;durP2;ratioP2;P2;SDS_P1;SDS_P2;PMS_P1;PMS_P2;Temp;Humidity;BMP_temperature;BMP_pressure;BME280_temperature;BME280_humidity;BME280_pressure;Samples;Min_cycle;Max_cycle;Signal;HPM_P1;HPM_P2
2022/09/10 00:03:56;;;;;;;4.63;1.95;;;;;;;14.48;100.00;99491.81;12219430;19;20018;-83
2022/09/10 00:07:58;;;;;;;9.55;2.22;;;;;;;14.51;100.00;99489.31;12221860;19;20010;-83
2022/09/10 00:11:59;;;;;;;7.80;2.30;;;;;;;14.49;100.00;99485.19;12197070;19;20014;-84
2022/09/10 00:16:03;;;;;;;8.95;2.10;;;;;;;14.47;100.00;99491.00;12217928;19;20030;-83
2022/09/10 00:20:05;;;;;;;6.30;3.10;;;;;;;14.47;100.00;99484.63;12220077;19;20465;-84
2022/09/10 00:24:07;;;;;;;7.33;2.57;;;;;;;14.46;100.00;99483.78;12191736;19;20045;-84
2022/09/10 00:28:08;;;;;;;7.40;2.28;;;;;;;14.45;100.00;99479.34;12218808;19;20014;-84
2022/09/10 00:32:10;;;;;;;8.13;2.90;;;;;;;14.47;100.00;99485.44;12216953;19;20021;-84
2022/09/10 00:36:15;;;;;;;6.53;2.22;;;;;;;14.54;100.00;99486.00;12191584;19;20948;-84
2022/09/10 00:40:17;;;;;;;8.45;2.75;;;;;;;14.59;100.00;99490.69;12217960;19;20017;-83
2022/09/10 00:44:40;;;;;;;7.28;2.33;;;;;;;14.61;100.00;99488.47;12224920;19;20003;-84
2022/09/10 00:48:42;;;;;;;5.78;2.17;;;;;;;14.62;100.00;99492.06;12202656;19;20106;-85
2022/09/10 00:52:46;;;;;;;9.23;2.25;;;;;;;14.73;100.00;99496.47;12228331;19;20037;-84
2022/09/10 00:56:49;;;;;;;7.30;2.63;;;;;;;14.91;100.00;99492.22;12205284;19;19999;-85
2022/09/10 01:00:55;;;;;;;3.72;2.28;;;;;;;14.97;100.00;99496.59;12228201;19;20049;-84
2022/09/10 01:04:57;;;;;;;5.13;2.00;;;;;;;15.08;100.00;99497.34;12225722;19;20011;-83
2022/09/10 01:09:00;;;;;;;7.93;2.03;;;;;;;15.13;100.00;99503.72;12211823;19;20006;-82
2022/09/10 01:13:21;;;;;;;6.70;2.28;;;;;;;15.20;100.00;99497.81;12227168;19;20013;-83
2022/09/10 01:17:44;;;;;;;8.50;2.30;;;;;;;15.25;100.00;99492.25;12224246;19;20030;-84
2022/09/10 01:22:19;;;;;;;6.57;2.40;;;;;;;15.32;100.00;99501.09;12203293;19;20011;-83
2022/09/10 01:26:37;;;;;;;4.72;2.42;;;;;;;15.31;100.00;99493.88;12218573;19;20011;-82
2022/09/10 01:30:45;;;;;;;3.65;1.95;;;;;;;15.27;100.00;99490.03;12194614;19;20031;-83
2022/09/10 01:34:55;;;;;;;7.35;2.35;;;;;;;15.18;100.00;99489.81;12212320;19;20014;-84
2022/09/10 01:38:57;;;;;;;5.88;1.98;;;;;;;15.14;100.00;99493.44;12193725;19;20855;-82
2022/09/10 01:43:10;;;;;;;7.27;2.03;;;;;;;15.10;100.00;99501.50;12220805;19;20682;-84
2022/09/10 01:47:25;;;;;;;4.80;2.03;;;;;;;15.06;100.00;99497.66;12218721;19;20011;-83
2022/09/10 01:51:42;;;;;;;7.45;1.65;;;;;;;15.03;100.00;99492.69;12208338;19;20014;-85
2022/09/10 01:55:46;;;;;;;4.35;1.40;;;;;;;15.04;100.00;99483.22;12274077;19;20011;-85
2022/09/10 02:00:15;;;;;;;4.18;1.50;;;;;;;15.01;100.00;99489.34;12255647;19;20015;-85
2022/09/10 02:04:21;;;;;;;4.88;1.58;;;;;;;14.96;100.00;99478.28;12259354;19;20024;-83
2022/09/10 02:08:29;;;;;;;4.28;1.90;;;;;;;14.79;100.00;99471.19;12242768;19;20030;-84
2022/09/10 02:12:34;;;;;;;4.15;1.60;;;;;;;14.73;100.00;99469.56;12259047;19;20055;-85
2022/09/10 02:17:00;;;;;;;4.03;1.40;;;;;;;14.67;100.00;99469.88;12255528;19;20339;-84
2022/09/10 02:21:02;;;;;;;3.00;1.30;;;;;;;14.59;100.00;99480.44;12206955;19;20542;-84
2022/09/10 02:25:05;;;;;;;3.97;1.60;;;;;;;14.59;100.00;99487.91;12227126;19;20011;-84
2022/09/10 02:29:08;;;;;;;6.28;2.08;;;;;;;14.60;100.00;99489.56;12232441;19;20038;-84
2022/09/10 02:33:15;;;;;;;7.85;1.92;;;;;;;14.67;100.00;99484.56;12202351;19;20062;-83
2022/09/10 02:37:17;;;;;;;6.38;1.80;;;;;;;14.77;100.00;99483.66;12219232;19;20022;-83
2022/09/10 02:41:21;;;;;;;2.60;1.40;;;;;;;14.82;100.00;99476.16;12223031;19;20018;-83
2022/09/10 02:45:23;;;;;;;3.38;1.45;;;;;;;14.90;100.00;99476.66;12198609;19;20019;-84
2022/09/10 02:49:27;;;;;;;3.40;1.38;;;;;;;14.96;100.00;99479.13;12220841;19;20018;-83
2022/09/10 02:53:30;;;;;;;4.28;1.52;;;;;;;14.99;100.00;99475.78;12221083;19;20033;-84
2022/09/10 02:57:36;;;;;;;3.85;1.10;;;;;;;15.06;100.00;99475.47;12196220;19;20011;-82
2022/09/10 03:01:37;;;;;;;3.22;1.75;;;;;;;15.08;100.00;99475.16;12219760;19;20017;-83
2022/09/10 03:05:42;;;;;;;4.25;1.67;;;;;;;15.11;100.00;99469.88;12194392;19;20014;-82
2022/09/10 03:09:43;;;;;;;3.35;1.70;;;;;;;15.09;100.00;99471.28;12217184;19;20113;-82
2022/09/10 03:13:45;;;;;;;3.63;1.80;;;;;;;15.07;100.00;99471.56;12214303;19;20010;-83
2022/09/10 03:17:47;;;;;;;4.60;1.92;;;;;;;15.11;100.00;99467.09;12194687;19;20003;-82
2022/09/10 03:21:48;;;;;;;6.03;2.40;;;;;;;15.14;100.00;99479.56;12217969;19;20352;-82
2022/09/10 03:25:50;;;;;;;5.18;2.50;;;;;;;15.15;100.00;99473.72;12213090;19;20032;-81
2022/09/10 03:29:58;;;;;;;6.65;2.25;;;;;;;15.20;100.00;99483.94;12192279;19;20479;-82
2022/09/10 03:34:01;;;;;;;;;;;;;;;15.21;100.00;99482.84;12213983;19;20023;-82
2022/09/10 03:38:04;;;;;;;5.13;2.15;;;;;;;15.24;100.00;99480.31;12213563;19;19911;-82
2022/09/10 03:42:06;;;;;;;6.50;2.17;;;;;;;15.20;100.00;99479.25;12193417;19;20010;-82
2022/09/10 03:46:10;;;;;;;6.13;2.05;;;;;;;15.24;100.00;99479.50;12210060;19;20024;-82
2022/09/10 03:50:15;;;;;;;5.82;2.30;;;;;;;15.26;100.00;99480.06;12211751;19;20002;-81
2022/09/10 03:54:19;;;;;;;8.63;2.40;;;;;;;15.29;100.00;99485.03;12188499;19;20032;-81
2022/09/10 03:58:21;;;;;;;3.38;2.00;;;;;;;15.33;100.00;99491.63;12210494;19;20006;-81
2022/09/10 04:02:23;;;;;;;4.88;2.20;;;;;;;15.33;100.00;99491.63;12213350;19;20010;-81
2022/09/10 04:06:25;;;;;;;6.80;2.63;;;;;;;15.28;100.00;99488.91;12188258;19;20019;-81
2022/09/10 04:10:29;;;;;;;8.73;2.30;;;;;;;15.31;100.00;99488.31;12212606;19;20041;-81
2022/09/10 04:14:31;;;;;;;3.17;2.17;;;;;;;15.27;100.00;99484.47;12209259;19;20018;-82
2022/09/10 04:18:34;;;;;;;7.28;2.63;;;;;;;15.25;100.00;99483.91;12191559;19;20014;-82
2022/09/10 04:22:38;;;;;;;5.90;2.70;;;;;;;15.16;100.00;99480.09;12214154;19;20418;-82
2022/09/10 04:26:40;;;;;;;6.18;2.67;;;;;;;15.16;100.00;99480.09;12191843;19;20014;-82
2022/09/10 04:30:44;;;;;;;6.68;2.97;;;;;;;15.15;100.00;99476.50;12215073;19;20038;-81
2022/09/10 04:34:46;;;;;;;5.50;2.70;;;;;;;15.16;100.00;99478.16;12214245;19;20014;-82
2022/09/10 04:38:47;;;;;;;6.90;2.80;;;;;;;15.12;100.00;99477.09;12190615;19;20011;-82
2022/09/10 04:42:51;;;;;;;5.03;2.80;;;;;;;15.13;100.00;99489.00;12233324;19;20048;-83
2022/09/10 04:46:53;;;;;;;9.15;3.20;;;;;;;15.13;100.00;99483.47;12226266;19;20014;-83
2022/09/10 04:50:54;;;;;;;10.00;3.50;;;;;;;15.17;100.00;99484.53;12202576;19;20817;-83
2022/09/10 04:55:18;;;;;;;6.20;3.47;;;;;;;15.14;100.00;99480.41;12223476;19;20207;-83
2022/09/10 04:59:20;;;;;;;6.35;3.08;;;;;;;15.13;100.00;99487.06;12229133;19;20029;-83
2022/09/10 05:03:23;;;;;;;10.02;3.53;;;;;;;15.18;100.00;99494.53;12208493;19;20471;-83
2022/09/10 05:07:26;;;;;;;8.70;3.40;;;;;;;15.17;100.00;99492.84;12228793;19;20010;-83
2022/09/10 05:11:28;;;;;;;7.75;3.28;;;;;;;15.18;100.00;99497.31;12231914;19;19999;-83
2022/09/10 05:15:30;;;;;;;6.95;3.08;;;;;;;15.17;100.00;99493.72;12204136;19;20029;-82
2022/09/10 05:19:32;;;;;;;5.75;3.15;;;;;;;15.18;100.00;99486.22;12229163;19;20010;-83
2022/09/10 05:23:40;;;;;;;7.35;3.17;;;;;;;15.12;100.00;99492.91;12204640;19;20007;-83
2022/09/10 05:27:42;;;;;;;6.55;3.45;;;;;;;15.12;100.00;99495.69;12228825;19;20003;-83
2022/09/10 05:31:48;;;;;;;6.13;3.22;;;;;;;15.17;100.00;99485.38;12233391;19;20015;-83
2022/09/10 05:35:50;;;;;;;7.07;3.00;;;;;;;15.19;100.00;99490.63;12207900;19;20107;-83
2022/09/10 05:39:52;;;;;;;8.63;2.75;;;;;;;15.34;100.00;99492.47;12233135;19;20020;-82
2022/09/10 05:43:54;;;;;;;6.85;3.25;;;;;;;15.40;100.00;99486.56;12234910;19;20007;-82
2022/09/10 05:47:56;;;;;;;7.13;3.10;;;;;;;15.50;100.00;99488.47;12211368;19;21453;-83
2022/09/10 05:51:57;;;;;;;8.18;2.97;;;;;;;15.56;100.00;99492.03;12236054;19;20014;-82
2022/09/10 05:55:59;;;;;;;6.30;3.40;;;;;;;15.54;100.00;99491.47;12229578;19;20010;-83
2022/09/10 06:00:05;;;;;;;6.82;3.72;;;;;;;15.42;100.00;99505.75;12204368;19;20003;-83
2022/09/10 06:04:14;;;;;;;5.78;3.75;;;;;;;15.36;100.00;99498.56;12229047;19;20017;-82
2022/09/10 06:08:19;;;;;;;6.05;3.92;;;;;;;15.31;100.00;99504.97;12232479;19;20039;-82
2022/09/10 06:12:23;;;;;;;4.75;3.55;;;;;;;15.33;100.00;99496.38;12205466;19;20014;-82
2022/09/10 06:16:24;;;;;;;7.50;3.55;;;;;;;15.28;100.00;99500.00;12224265;19;20010;-82
2022/09/10 06:20:28;;;;;;;7.82;3.40;;;;;;;15.26;100.00;99516.97;12229191;19;20014;-82
2022/09/10 06:24:30;;;;;;;7.10;4.03;;;;;;;15.26;100.00;99516.97;12209585;19;20010;-81
2022/09/10 06:28:34;;;;;;;10.27;3.90;;;;;;;15.21;100.00;99514.19;12221343;19;20024;-82
2022/09/10 06:32:38;;;;;;;7.93;3.88;;;;;;;15.15;100.00;99518.13;12218737;19;20021;-83
2022/09/10 06:36:42;;;;;;;6.28;3.55;;;;;;;15.12;100.00;99528.97;12226223;19;20011;-82
2022/09/10 06:40:53;;;;;;;6.82;3.67;;;;;;;15.10;100.00;99536.75;12224670;19;20081;-83
2022/09/10 06:44:56;;;;;;;6.93;3.95;;;;;;;15.14;100.00;99532.28;12200335;19;20041;-82
2022/09/10 06:49:23;;;;;;;9.02;4.25;;;;;;;15.24;100.00;99540.56;12225990;19;20009;-83
2022/09/10 06:53:27;;;;;;;10.73;4.63;;;;;;;15.28;100.00;99541.63;12219439;19;20006;-83
2022/09/10 06:57:30;;;;;;;9.98;4.60;;;;;;;15.32;100.00;99539.97;12190222;19;20010;-83
2022/09/10 07:01:31;;;;;;;10.88;4.70;;;;;;;15.33;100.00;99549.13;12218061;19;20038;-84
2022/09/10 07:05:35;;;;;;;7.95;4.35;;;;;;;15.36;100.00;99549.38;12213989;19;20034;-83
2022/09/10 07:09:37;;;;;;;8.00;4.68;;;;;;;15.20;100.00;99547.78;12193185;19;20612;-85
2022/09/10 07:13:42;;;;;;;10.10;5.03;;;;;;;15.24;100.00;99541.38;12213547;19;20011;-84
2022/09/10 07:17:43;;;;;;;7.68;4.97;;;;;;;15.20;100.00;99537.53;12192782;19;20006;-85
2022/09/10 07:21:45;;;;;;;10.20;4.82;;;;;;;15.35;100.00;99549.63;12214122;19;20380;-83
2022/09/10 07:25:49;;;;;;;12.80;5.47;;;;;;;15.45;100.00;99539.31;12213464;19;20007;-83
2022/09/10 07:30:12;;;;;;;7.10;4.78;;;;;;;15.62;100.00;99541.69;12191440;19;20078;-84
2022/09/10 07:34:14;;;;;;;11.43;4.35;;;;;;;15.75;100.00;99543.00;12211878;19;20077;-86
2022/09/10 07:38:16;;;;;;;11.10;4.78;;;;;;;15.83;100.00;99550.72;12211339;19;20010;-85
2022/09/10 07:42:20;;;;;;;9.07;4.07;;;;;;;15.95;100.00;99561.44;12189981;19;20029;-84
2022/09/10 07:46:24;;;;;;;6.50;3.72;;;;;;;16.10;100.00;99557.69;12196343;19;20029;-86
2022/09/10 07:50:26;;;;;;;5.20;3.70;;;;;;;16.26;100.00;99566.69;12226179;19;20083;-84
2022/09/10 07:54:29;;;;;;;8.55;3.95;;;;;;;16.48;100.00;99566.19;12204335;19;20519;-85
2022/09/10 07:58:34;;;;;;;7.93;3.80;;;;;;;16.63;100.00;99566.84;12224227;19;20014;-85
2022/09/10 08:02:38;;;;;;;6.07;3.65;;;;;;;16.78;100.00;99582.56;12220144;19;20038;-84
2022/09/10 08:06:40;;;;;;;13.63;3.67;;;;;;;16.89;100.00;99574.91;12226934;19;20031;-83
2022/09/10 08:10:43;;;;;;;6.60;3.53;;;;;;;17.01;100.00;99574.47;12263814;19;20102;-86
2022/09/10 08:14:45;;;;;;;6.18;3.03;;;;;;;17.18;100.00;99579.56;12246605;19;20003;-83
2022/09/10 08:18:47;;;;;;;5.97;3.17;;;;;;;17.42;100.00;99582.28;12246752;19;20078;-83
2022/09/10 08:22:50;;;;;;;6.93;3.30;;;;;;;17.48;100.00;99584.69;12236501;19;20011;-82
2022/09/10 08:26:52;;;;;;;8.70;3.22;;;;;;;17.47;100.00;99583.03;12211830;19;20036;-80
2022/09/10 08:30:58;;;;;;;10.20;3.38;;;;;;;17.67;100.00;99590.28;12226174;19;20285;-80
2022/09/10 08:35:02;;;;;;;8.57;3.72;;;;;;;18.08;100.00;99586.00;12232539;19;20010;-80
2022/09/10 08:39:04;;;;;;;5.20;2.72;;;;;;;18.18;100.00;99594.22;12209503;19;20021;-80
2022/09/10 08:43:11;;;;;;;7.55;3.28;;;;;;;18.32;100.00;99594.22;12228101;19;20003;-80
2022/09/10 08:47:34;;;;;;;7.07;2.83;;;;;;;18.16;100.00;99599.25;12224929;19;20003;-80
2022/09/10 08:51:49;;;;;;;6.93;2.78;;;;;;;18.18;100.00;99602.56;12199678;19;20019;-79
2022/09/10 08:55:56;;;;;;;10.00;3.30;;;;;;;18.10;100.00;99598.50;12216128;19;20014;-80
2022/09/10 09:00:00;;;;;;;8.13;3.42;;;;;;;18.16;100.00;99594.50;12195285;19;20011;-79
2022/09/10 09:04:15;;;;;;;5.05;2.50;;;;;;;17.82;100.00;99605.09;12227201;19;20098;-80
2022/09/10 09:08:26;;;;;;;6.03;2.90;;;;;;;17.77;100.00;99604.06;12224068;19;20471;-80
2022/09/10 09:12:44;;;;;;;9.55;2.72;;;;;;;17.75;100.00;99600.72;12206021;19;20007;-80
2022/09/10 09:17:25;;;;;;;7.32;2.80;;;;;;;17.67;100.00;99608.94;12224891;19;20007;-79
2022/09/10 09:21:46;;;;;;;7.03;2.85;;;;;;;17.82;100.00;99605.09;12208660;19;21019;-80
2022/09/10 09:25:52;;;;;;;9.70;2.85;;;;;;;17.84;100.00;99616.78;12225865;19;20070;-80
2022/09/10 09:30:00;;;;;;;9.48;2.42;;;;;;;17.80;100.00;99615.75;12205474;19;20006;-80
2022/09/10 09:34:11;;;;;;;5.85;3.03;;;;;;;17.90;100.00;99610.81;12225640;19;20439;-81
2022/09/10 09:38:38;;;;;;;6.85;2.63;;;;;;;17.95;100.00;99618.28;12231380;19;20003;-81
2022/09/10 09:42:50;;;;;;;9.38;3.35;;;;;;;17.82;100.00;99610.69;12209993;19;20514;-82
2022/09/10 09:46:55;;;;;;;4.93;2.25;;;;;;;17.92;100.00;99619.72;12226529;19;20367;-82
2022/09/10 09:51:00;;;;;;;7.75;3.08;;;;;;;17.87;100.00;99614.22;12203692;19;20031;-81
2022/09/10 09:55:06;;;;;;;6.97;2.30;;;;;;;17.97;100.00;99616.84;12225090;19;20074;-82
2022/09/10 09:59:29;;;;;;;7.65;2.60;;;;;;;17.90;100.00;99612.78;12222518;19;20459;-82
2022/09/10 10:03:47;;;;;;;8.73;2.70;;;;;;;17.73;100.00;99607.75;12205096;19;20433;-82
2022/09/10 10:07:49;;;;;;;8.60;2.78;;;;;;;17.77;100.00;99611.56;12225451;19;20411;-81
2022/09/10 10:11:54;;;;;;;12.25;2.75;;;;;;;17.88;100.00;99609.50;12202725;19;20017;-82
2022/09/10 10:16:12;;;;;;;9.57;2.60;;;;;;;17.89;100.00;99600.81;12218704;19;20026;-82
2022/09/10 10:20:15;;;;;;;5.20;2.35;;;;;;;17.88;100.00;99601.13;12226448;19;20007;-82
2022/09/10 10:24:32;;;;;;;8.45;2.30;;;;;;;17.72;100.00;99604.09;12201577;19;20022;-82
2022/09/10 10:28:34;;;;;;;6.47;2.70;;;;;;;17.69;100.00;99601.09;12224480;19;20487;-81
2022/09/10 10:32:56;;;;;;;;;;;;;;;17.59;100.00;99598.47;12222972;19;20410;-82
2022/09/10 10:37:15;;;;;;;4.47;2.35;;;;;;;17.63;100.00;99591.16;12197965;19;19962;-81
2022/09/10 10:41:35;;;;;;;6.28;2.28;;;;;;;17.73;100.00;99582.66;12221528;19;20010;-82
2022/09/10 10:46:03;;;;;;;6.40;2.40;;;;;;;17.79;100.00;99577.84;12198818;19;20021;-81
2022/09/10 10:50:24;;;;;;;6.78;2.53;;;;;;;17.80;100.00;99588.69;12222282;19;20006;-82
2022/09/10 10:54:53;;;;;;;7.18;2.30;;;;;;;17.82;100.00;99599.53;12195896;19;20015;-83
2022/09/10 10:59:03;;;;;;;5.07;2.45;;;;;;;17.73;100.00;99600.22;12216827;19;20487;-80
2022/09/10 11:03:14;;;;;;;8.25;3.03;;;;;;;17.45;100.00;99604.78;12200431;19;20010;-81
2022/09/10 11:07:35;;;;;;;9.57;3.50;;;;;;;17.31;100.00;99599.16;12225255;19;20031;-80
2022/09/10 11:12:05;;;;;;;6.80;2.90;;;;;;;17.15;100.00;99602.44;12214088;19;20011;-80
2022/09/10 11:16:35;;;;;;;8.88;3.22;;;;;;;17.23;100.00;99593.41;12197801;19;20022;-81
2022/09/10 11:21:01;;;;;;;8.50;3.47;;;;;;;17.28;100.00;99596.13;12220621;19;20759;-80
2022/09/10 11:25:21;;;;;;;9.05;3.20;;;;;;;17.22;100.00;99586.19;12230864;19;20012;-80
2022/09/10 11:29:56;;;;;;;5.72;3.03;;;;;;;17.33;100.00;99576.56;12220176;19;20002;-80
2022/09/10 11:34:05;;;;;;;5.88;2.60;;;;;;;17.56;100.00;99583.19;12205124;19;20049;-80
2022/09/10 11:38:22;;;;;;;8.90;3.05;;;;;;;17.73;100.00;99586.28;12254963;19;20006;-84
2022/09/10 11:42:32;;;;;;;7.68;2.88;;;;;;;18.24;100.00;99578.22;12240701;19;20007;-83
2022/09/10 11:46:59;;;;;;;6.72;2.45;;;;;;;18.92;100.00;99571.03;12255637;19;20017;-81
2022/09/10 11:51:06;;;;;;;4.97;2.40;;;;;;;18.90;100.00;99582.53;12212476;19;20026;-83
2022/09/10 11:55:16;;;;;;;6.28;2.25;;;;;;;18.75;100.00;99571.69;12227427;19;20843;-83
2022/09/10 11:59:41;;;;;;;6.40;2.97;;;;;;;18.50;100.00;99575.75;12221916;19;20003;-82
2022/09/10 12:04:00;;;;;;;7.40;2.80;;;;;;;18.05;100.00;99581.84;12205457;19;20407;-82
2022/09/10 12:08:37;;;;;;;4.70;2.67;;;;;;;17.82;100.00;99574.44;12225649;19;20015;-83
2022/09/10 12:12:45;;;;;;;8.43;2.58;;;;;;;17.84;100.00;99574.97;12203395;19;20019;-82
2022/09/10 12:17:02;;;;;;;6.25;2.50;;;;;;;18.22;100.00;99568.19;12222902;19;20095;-82
2022/09/10 12:21:13;;;;;;;6.50;2.78;;;;;;;19.06;100.00;99563.50;12201460;19;20203;-82
2022/09/10 12:25:15;;;;;;;6.55;3.05;;;;;;;19.65;100.00;99560.78;12226327;19;20510;-82
2022/09/10 12:29:28;;;;;;;3.67;1.60;;;;;;;20.32;100.00;99557.16;12225570;19;20511;-81
2022/09/10 12:33:56;;;;;;;5.07;1.80;;;;;;;20.46;100.00;99553.09;12186248;19;20022;-81
2022/09/10 12:38:55;;;;;;;4.55;1.30;;;;;;;20.43;100.00;99548.13;12203225;19;20011;-80
2022/09/10 12:43:43;;;;;;;4.43;0.98;;;;;;;20.69;100.00;99550.25;12179947;19;20017;-82
2022/09/10 12:47:49;;;;;;;5.90;0.90;;;;;;;22.11;97.05;99548.94;12179514;19;19998;-81
2022/09/10 12:51:50;;;;;;;4.03;0.98;;;;;;;22.45;91.39;99548.84;12207129;19;20014;-80
2022/09/10 12:56:00;;;;;;;0.68;0.50;;;;;;;23.58;79.34;99551.03;12205902;19;20014;-84
2022/09/10 13:00:16;;;;;;;2.03;0.90;;;;;;;23.43;78.26;99548.84;12181075;19;20368;-83
2022/09/10 13:04:23;;;;;;;1.65;0.60;;;;;;;22.91;80.03;99543.53;12203626;19;22161;-84
2022/09/10 13:08:40;;;;;;;1.90;0.70;;;;;;;21.94;81.17;99555.38;12207585;19;20002;-84
2022/09/10 13:12:43;;;;;;;1.58;0.80;;;;;;;21.46;84.13;99539.56;12185890;19;20690;-84
2022/09/10 13:16:45;;;;;;;4.30;0.90;;;;;;;21.74;83.62;99545.66;12209998;19;20010;-84
2022/09/10 13:20:47;;;;;;;2.60;0.82;;;;;;;22.02;83.71;99534.91;12186834;19;20507;-84
2022/09/10 13:25:00;;;;;;;1.27;0.80;;;;;;;22.69;76.68;99539.00;12209545;19;20033;-84
2022/09/10 13:29:31;;;;;;;1.67;0.80;;;;;;;23.07;74.34;99538.19;12207986;19;20003;-82
2022/09/10 13:34:14;;;;;;;1.75;0.60;;;;;;;23.43;72.47;99526.34;12187083;19;20031;-84
2022/09/10 13:38:51;;;;;;;4.43;0.90;;;;;;;23.13;71.53;99519.97;12208596;19;20010;-83
2022/09/10 13:43:03;;;;;;;1.98;0.60;;;;;;;22.69;74.17;99522.97;12188291;19;20018;-84
2022/09/10 13:47:14;;;;;;;3.03;1.60;;;;;;;23.16;72.76;99517.28;12203821;19;20018;-83
2022/09/10 13:51:35;;;;;;;2.88;0.63;;;;;;;24.09;69.10;99520.81;12195654;19;20014;-83
2022/09/10 13:55:47;;;;;;;2.00;0.70;;;;;;;23.96;64.46;99521.94;12215562;19;20392;-81
2022/09/10 13:59:53;;;;;;;1.10;0.47;;;;;;;23.25;66.79;99514.41;12195761;19;20754;-83
2022/09/10 14:03:59;;;;;;;1.10;0.60;;;;;;;22.49;68.60;99504.09;12216151;19;20013;-84
2022/09/10 14:08:10;;;;;;;4.30;1.10;;;;;;;22.56;69.90;99500.75;12223190;19;20010;-81
2022/09/10 14:12:14;;;;;;;1.67;0.45;;;;;;;22.60;70.13;99494.13;12203278;19;20053;-82
2022/09/10 14:16:23;;;;;;;2.03;0.80;;;;;;;22.29;70.08;99497.25;12265034;19;20006;-82
2022/09/10 14:20:34;;;;;;;1.70;0.70;;;;;;;22.33;70.80;99500.19;12273538;19;20030;-81
2022/09/10 14:24:38;;;;;;;1.92;0.70;;;;;;;22.28;70.98;99492.78;12207470;19;19998;-80
2022/09/10 14:28:54;;;;;;;1.23;0.60;;;;;;;22.34;69.63;99501.81;12219821;19;20013;-82
2022/09/10 14:33:31;;;;;;;1.48;0.70;;;;;;;22.50;67.76;99506.56;12200699;19;20039;-81
2022/09/10 14:37:40;;;;;;;0.68;0.65;;;;;;;23.13;67.40;99501.09;12220699;19;20007;-82
2022/09/10 14:41:42;;;;;;;1.35;0.75;;;;;;;23.07;65.56;99505.28;12211541;19;20822;-81
2022/09/10 14:45:46;;;;;;;1.15;0.60;;;;;;;22.53;67.71;99491.84;12214172;19;20010;-80
2022/09/10 14:49:48;;;;;;;1.27;0.60;;;;;;;22.59;68.00;99492.47;12214211;19;20039;-81
2022/09/10 14:53:54;;;;;;;1.58;0.75;;;;;;;22.24;67.96;99489.00;12191032;19;20434;-81
2022/09/10 14:57:57;;;;;;;1.02;0.57;;;;;;;22.01;67.61;99488.38;12219079;19;20007;-81
2022/09/10 15:02:11;;;;;;;1.33;0.77;;;;;;;21.88;68.58;99504.25;12213198;19;20089;-80
2022/09/10 15:06:13;;;;;;;1.75;0.60;;;;;;;21.91;68.64;99497.16;12189894;19;20026;-79
2022/09/10 15:10:15;;;;;;;2.15;0.63;;;;;;;21.51;69.16;99494.56;12215577;19;20357;-81
2022/09/10 15:14:18;;;;;;;0.93;0.70;;;;;;;21.41;70.77;99489.28;12211314;19;20010;-80
2022/09/10 15:18:21;;;;;;;0.70;0.70;;;;;;;21.16;71.76;99494.53;12191864;19;20010;-78
2022/09/10 15:22:28;;;;;;;1.17;0.82;;;;;;;21.57;70.65;99490.44;12210076;19;20006;-79
2022/09/10 15:26:30;;;;;;;1.33;0.70;;;;;;;21.44;70.45;99486.63;12211093;19;20023;-79
2022/09/10 15:30:35;;;;;;;1.60;0.88;;;;;;;21.51;70.19;99480.56;12191367;19;20046;-79
2022/09/10 15:34:38;;;;;;;;;;;;;;;21.23;70.68;99483.63;12213893;19;20010;-82
2022/09/10 15:38:40;;;;;;;1.17;1.00;;;;;;;20.93;71.50;99482.63;12214552;19;20713;-80
2022/09/10 15:42:41;;;;;;;1.30;0.98;;;;;;;20.74;72.34;99490.50;12191070;19;20483;-80
2022/09/10 15:46:44;;;;;;;1.55;0.93;;;;;;;20.70;73.20;99495.91;12214021;19;20006;-79
2022/09/10 15:50:47;;;;;;;2.53;0.80;;;;;;;20.47;74.82;99497.94;12193796;19;20337;-80
2022/09/10 15:54:49;;;;;;;2.72;0.90;;;;;;;20.36;75.04;99497.41;12215645;19;20017;-77
2022/09/10 15:58:53;;;;;;;1.42;0.90;;;;;;;20.22;76.26;99502.25;12213313;19;20010;-79
2022/09/10 16:02:55;;;;;;;2.80;1.23;;;;;;;19.98;76.60;99503.47;12190611;19;20010;-80
2022/09/10 16:06:57;;;;;;;1.70;1.08;;;;;;;19.87;78.39;99506.84;12220974;19;20017;-78
2022/09/10 16:10:59;;;;;;;2.28;1.30;;;;;;;19.60;83.01;99505.78;12235518;19;20017;-81
2022/09/10 16:15:01;;;;;;;1.30;1.20;;;;;;;19.25;87.53;99515.88;12210493;19;20026;-82
2022/09/10 16:19:04;;;;;;;1.90;1.25;;;;;;;19.20;88.16;99519.59;12240034;19;20019;-81
2022/09/10 16:23:06;;;;;;;2.60;1.40;;;;;;;19.12;89.57;99511.97;12236469;19;20014;-83
2022/09/10 16:27:07;;;;;;;3.40;1.23;;;;;;;19.04;89.28;99513.56;12211941;19;20010;-82
2022/09/10 16:31:17;;;;;;;2.00;1.00;;;;;;;18.93;89.32;99522.47;12227637;19;20007;-83
2022/09/10 16:35:19;;;;;;;3.90;0.93;;;;;;;18.83;90.53;99537.47;12229268;19;20011;-81
2022/09/10 16:39:21;;;;;;;1.30;1.10;;;;;;;18.62;95.80;99549.03;12220722;19;20007;-82
2022/09/10 16:43:23;;;;;;;2.73;1.53;;;;;;;18.46;95.52;99553.22;12257036;19;20007;-79
2022/09/10 16:47:25;;;;;;;3.42;1.45;;;;;;;18.20;100.00;99555.66;12254244;19;20058;-80
2022/09/10 16:51:27;;;;;;;2.08;1.55;;;;;;;18.06;100.00;99564.03;12234861;19;20011;-81
2022/09/10 16:55:29;;;;;;;3.08;1.45;;;;;;;17.88;100.00;99568.50;12254616;19;20011;-81
2022/09/10 16:59:30;;;;;;;3.05;1.77;;;;;;;17.76;100.00;99566.16;12251894;19;20051;-81
2022/09/10 17:03:32;;;;;;;6.07;1.83;;;;;;;17.66;100.00;99562.69;12214919;19;20011;-81
2022/09/10 17:07:33;;;;;;;3.60;2.05;;;;;;;17.56;100.00;99566.47;12235252;19;20011;-83
2022/09/10 17:11:35;;;;;;;2.75;1.70;;;;;;;17.46;100.00;99564.69;12229240;19;20622;-82
2022/09/10 17:15:37;;;;;;;4.45;2.28;;;;;;;17.37;100.00;99560.06;12189876;19;20380;-80
2022/09/10 17:19:38;;;;;;;2.85;2.00;;;;;;;17.35;100.00;99560.38;12213984;19;20015;-81
2022/09/10 17:23:40;;;;;;;3.35;2.10;;;;;;;17.30;100.00;99566.84;12221240;19;20486;-80
2022/09/10 17:27:42;;;;;;;4.00;1.80;;;;;;;17.30;100.00;99569.63;12203735;19;20014;-82
2022/09/10 17:31:47;;;;;;;4.88;2.42;;;;;;;17.22;100.00;99566.69;12225146;19;20070;-80
2022/09/10 17:35:56;;;;;;;6.45;2.95;;;;;;;17.20;100.00;99574.53;12200333;19;20030;-82
2022/09/10 17:39:58;;;;;;;4.25;3.08;;;;;;;17.15;100.00;99578.19;12228401;19;20006;-81
2022/09/10 17:44:00;;;;;;;4.88;3.10;;;;;;;17.10;100.00;99572.69;12228012;19;20029;-83
2022/09/10 17:48:01;;;;;;;5.43;3.10;;;;;;;17.04;100.00;99573.88;12203779;19;20152;-83
2022/09/10 17:52:04;;;;;;;10.32;3.40;;;;;;;16.92;100.00;99579.88;12226668;19;20011;-84
2022/09/10 17:56:08;;;;;;;5.00;3.72;;;;;;;16.84;100.00;99586.13;12222183;19;20010;-82
2022/09/10 18:00:10;;;;;;;6.13;3.95;;;;;;;16.80;100.00;99585.03;12196083;19;20078;-83
2022/09/10 18:04:13;;;;;;;7.37;4.37;;;;;;;16.78;100.00;99590.91;12220202;19;20013;-83
2022/09/10 18:08:14;;;;;;;6.82;4.60;;;;;;;16.75;100.00;99599.00;12222522;19;20015;-82
2022/09/10 18:12:16;;;;;;;7.65;4.88;;;;;;;16.72;100.00;99602.38;12197432;19;20006;-83
2022/09/10 18:16:21;;;;;;;9.63;5.10;;;;;;;16.73;100.00;99601.25;12224224;19;20007;-83
2022/09/10 18:20:28;;;;;;;6.97;4.88;;;;;;;16.68;100.00;99602.13;12223244;19;20018;-83
2022/09/10 18:24:30;;;;;;;7.35;5.25;;;;;;;16.65;100.00;99605.50;12204272;19;20037;-82
2022/09/10 18:28:32;;;;;;;7.53;5.25;;;;;;;16.63;100.00;99607.75;12223988;19;20063;-81
2022/09/10 18:32:34;;;;;;;8.57;4.80;;;;;;;16.65;100.00;99602.72;12224828;19;20007;-82
2022/09/10 18:36:35;;;;;;;9.07;5.22;;;;;;;16.60;100.00;99613.91;12196134;19;20006;-83
2022/09/10 18:40:37;;;;;;;6.28;4.53;;;;;;;16.58;100.00;99611.41;12224255;19;20010;-83
2022/09/10 18:44:39;;;;;;;7.10;4.55;;;;;;;16.53;100.00;99621.75;12224564;19;20011;-83
2022/09/10 18:48:41;;;;;;;11.35;5.70;;;;;;;16.54;100.00;99626.22;12199409;19;20053;-82
2022/09/10 18:52:42;;;;;;;9.17;5.90;;;;;;;16.50;100.00;99619.56;12222472;19;20384;-83
2022/09/10 18:56:46;;;;;;;8.68;5.82;;;;;;;16.36;100.00;99614.72;12201536;19;20011;-82
2022/09/10 19:00:48;;;;;;;8.60;5.65;;;;;;;16.33;100.00;99620.84;12223832;19;20029;-83
2022/09/10 19:04:50;;;;;;;9.98;5.75;;;;;;;16.31;100.00;99617.53;12219967;19;20018;-83